createdAt,value
2023-08-11T00:00:07.500Z,16.65
2023-08-11T00:00:23.444Z,16.65
2023-08-11T00:00:37.351Z,16.65
2023-08-11T00:00:49.294Z,16.64
2023-08-11T00:01:01.244Z,16.63
2023-08-11T00:01:13.093Z,16.64
2023-08-11T00:01:24.959Z,16.65
2023-08-11T00:01:36.705Z,16.64
2023-08-11T00:01:48.538Z,16.66
2023-08-11T00:02:00.306Z,16.66
2023-08-11T00:02:12.114Z,16.64
2023-08-11T00:02:23.944Z,16.67
2023-08-11T00:02:39.150Z,16.67
2023-08-11T00:02:51.199Z,16.67
2023-08-11T00:03:03.296Z,16.65
2023-08-11T00:03:15.225Z,16.64
2023-08-11T00:03:27.264Z,16.64
2023-08-11T00:03:39.160Z,16.65
2023-08-11T00:03:51.022Z,16.64
2023-08-11T00:04:02.996Z,16.65
2023-08-11T00:04:14.980Z,16.65
2023-08-11T00:04:26.802Z,16.64
2023-08-11T00:04:38.936Z,16.64
2023-08-11T00:04:50.879Z,16.63
2023-08-11T00:05:02.801Z,16.64
2023-08-11T00:05:14.790Z,16.64
2023-08-11T00:05:26.814Z,16.62
2023-08-11T00:05:39.420Z,16.65
2023-08-11T00:05:51.193Z,16.64
2023-08-11T00:06:03.092Z,16.64
2023-08-11T00:06:15.037Z,16.63
2023-08-11T00:06:26.939Z,16.64
2023-08-11T00:06:38.767Z,16.63
2023-08-11T00:06:52.231Z,16.63
2023-08-11T00:07:04.784Z,16.62
2023-08-11T00:07:16.658Z,16.61
2023-08-11T00:07:28.602Z,16.62
2023-08-11T00:07:40.438Z,16.61
2023-08-11T00:07:52.392Z,16.62
2023-08-11T00:08:04.788Z,16.62
2023-08-11T00:08:16.625Z,16.63
2023-08-11T00:08:28.582Z,16.62
2023-08-11T00:08:40.441Z,16.61
2023-08-11T00:08:52.708Z,16.62
2023-08-11T00:09:04.945Z,16.61
2023-08-11T00:09:16.760Z,16.60
2023-08-11T00:09:28.631Z,16.61
2023-08-11T00:09:40.577Z,16.60
2023-08-11T00:09:52.496Z,16.61
2023-08-11T00:10:04.970Z,16.60
2023-08-11T00:10:17.070Z,16.60
2023-08-11T00:10:28.898Z,16.60
2023-08-11T00:10:40.744Z,16.58
2023-08-11T00:10:52.613Z,16.58
2023-08-11T00:11:04.539Z,16.59
2023-08-11T00:11:16.447Z,16.57
2023-08-11T00:11:28.326Z,16.59
2023-08-11T00:11:40.278Z,16.58
2023-08-11T00:11:52.119Z,16.58
2023-08-11T00:12:04.551Z,16.58
2023-08-11T00:12:16.446Z,16.57
2023-08-11T00:12:28.272Z,16.57
2023-08-11T00:12:40.285Z,16.56
2023-08-11T00:12:52.816Z,16.57
2023-08-11T00:13:05.509Z,16.56
2023-08-11T00:13:17.375Z,16.57
2023-08-11T00:13:29.265Z,16.56
2023-08-11T00:13:41.113Z,16.55
2023-08-11T00:13:53.360Z,16.55
2023-08-11T00:14:05.396Z,16.54
2023-08-11T00:14:17.453Z,16.52
2023-08-11T00:14:29.365Z,16.53
2023-08-11T00:14:41.231Z,16.52
2023-08-11T00:14:54.470Z,16.54
2023-08-11T00:15:07.774Z,16.52
2023-08-11T00:15:19.710Z,16.52
2023-08-11T00:15:31.857Z,16.51
2023-08-11T00:15:43.674Z,16.52
2023-08-11T00:15:55.561Z,16.51
2023-08-11T00:16:07.575Z,16.51
2023-08-11T00:16:19.427Z,16.50
2023-08-11T00:16:31.253Z,16.49
2023-08-11T00:16:43.211Z,16.49
2023-08-11T00:16:55.076Z,16.48
2023-08-11T00:17:07.368Z,16.48
2023-08-11T00:17:19.388Z,16.48
2023-08-11T00:17:31.317Z,16.47
2023-08-11T00:17:43.147Z,16.46
2023-08-11T00:17:58.345Z,16.48
2023-08-11T00:18:10.292Z,16.48
2023-08-11T00:18:22.229Z,16.45
2023-08-11T00:18:34.213Z,16.47
2023-08-11T00:18:46.080Z,16.45
2023-08-11T00:18:57.900Z,16.44
2023-08-11T00:19:10.043Z,16.44
2023-08-11T00:19:21.962Z,16.44
2023-08-11T00:19:34.016Z,16.44
2023-08-11T00:19:45.905Z,16.43
2023-08-11T00:19:57.756Z,16.42
2023-08-11T00:20:10.088Z,16.42
2023-08-11T00:20:22.028Z,16.42
2023-08-11T00:20:34.022Z,16.42
2023-08-11T00:20:46.297Z,16.43
2023-08-11T00:21:00.201Z,16.45
2023-08-11T00:21:12.408Z,16.44
2023-08-11T00:21:24.330Z,16.42
2023-08-11T00:21:36.228Z,16.43
2023-08-11T00:21:48.024Z,16.43
2023-08-11T00:21:59.923Z,16.43
2023-08-11T00:22:11.792Z,16.42
2023-08-11T00:22:23.614Z,16.43
2023-08-11T00:22:35.581Z,16.41
2023-08-11T00:22:47.522Z,16.42
2023-08-11T00:22:59.372Z,16.41
2023-08-11T00:23:11.190Z,16.39
2023-08-11T00:23:23.009Z,16.43
2023-08-11T00:23:34.943Z,16.42
2023-08-11T00:23:46.818Z,16.42
2023-08-11T00:23:58.610Z,16.42
2023-08-11T00:24:11.097Z,16.43
2023-08-11T00:24:23.097Z,16.41
2023-08-11T00:24:35.184Z,16.42
2023-08-11T00:24:47.093Z,16.41
2023-08-11T00:24:59.097Z,16.42
2023-08-11T00:25:11.163Z,16.42
2023-08-11T00:25:23.137Z,16.43
2023-08-11T00:25:35.006Z,16.43
2023-08-11T00:25:46.847Z,16.43
2023-08-11T00:25:58.925Z,16.42
2023-08-11T00:26:10.999Z,16.41
2023-08-11T00:26:22.890Z,16.44
2023-08-11T00:26:34.878Z,16.43
2023-08-11T00:26:46.753Z,16.43
2023-08-11T00:26:58.760Z,16.41
2023-08-11T00:27:10.853Z,16.42
2023-08-11T00:27:22.636Z,16.43
2023-08-11T00:27:34.518Z,16.42
2023-08-11T00:27:46.466Z,16.41
2023-08-11T00:27:58.341Z,16.40
2023-08-11T00:28:10.173Z,16.40
2023-08-11T00:28:21.983Z,16.39
2023-08-11T00:28:34.003Z,16.39
2023-08-11T00:28:47.486Z,16.38
2023-08-11T00:28:59.588Z,16.38
2023-08-11T00:29:11.371Z,16.38
2023-08-11T00:29:23.116Z,16.37
2023-08-11T00:29:35.282Z,16.37
2023-08-11T00:29:47.149Z,16.37
2023-08-11T00:30:00.337Z,16.33
2023-08-11T00:30:13.048Z,16.33
2023-08-11T00:30:24.893Z,16.35
2023-08-11T00:30:36.854Z,16.35
2023-08-11T00:30:50.489Z,16.34
2023-08-11T00:31:02.324Z,16.31
2023-08-11T00:31:14.284Z,16.31
2023-08-11T00:31:26.096Z,16.28
2023-08-11T00:31:37.978Z,16.28
2023-08-11T00:31:49.940Z,16.30
2023-08-11T00:32:01.754Z,16.29
2023-08-11T00:32:13.997Z,16.29
2023-08-11T00:32:25.918Z,16.26
2023-08-11T00:32:37.909Z,16.28
2023-08-11T00:32:50.495Z,16.28
2023-08-11T00:33:02.662Z,16.27
2023-08-11T00:33:14.451Z,16.27
2023-08-11T00:33:26.525Z,16.26
2023-08-11T00:33:38.418Z,16.25
2023-08-11T00:33:50.234Z,16.26
2023-08-11T00:34:05.998Z,16.24
2023-08-11T00:34:17.929Z,16.24
2023-08-11T00:34:29.730Z,16.25
2023-08-11T00:34:41.491Z,16.24
2023-08-11T00:34:53.409Z,16.22
2023-08-11T00:35:06.079Z,16.23
2023-08-11T00:35:17.977Z,16.22
2023-08-11T00:35:29.761Z,16.23
2023-08-11T00:35:42.331Z,16.21
2023-08-11T00:35:54.177Z,16.22
2023-08-11T00:36:06.153Z,16.21
2023-08-11T00:36:18.448Z,16.20
2023-08-11T00:36:30.330Z,16.19
2023-08-11T00:36:42.249Z,16.19
2023-08-11T00:36:54.096Z,16.18
2023-08-11T00:37:06.201Z,16.18
2023-08-11T00:37:18.383Z,16.18
2023-08-11T00:37:30.282Z,16.20
2023-08-11T00:37:42.066Z,16.17
2023-08-11T00:37:53.972Z,16.14
2023-08-11T00:38:05.790Z,16.15
2023-08-11T00:38:17.603Z,16.14
2023-08-11T00:38:37.660Z,16.14
2023-08-11T00:38:49.531Z,16.13
2023-08-11T00:39:01.556Z,16.10
2023-08-11T00:39:13.508Z,16.13
2023-08-11T00:39:25.377Z,16.10
2023-08-11T00:39:37.226Z,16.11
2023-08-11T00:39:49.189Z,16.11
2023-08-11T00:40:01.084Z,16.08
2023-08-11T00:40:13.400Z,16.08
2023-08-11T00:40:25.432Z,16.08
2023-08-11T00:40:38.175Z,16.08
2023-08-11T00:40:50.146Z,16.08
2023-08-11T00:41:02.078Z,16.08
2023-08-11T00:41:14.206Z,16.06
2023-08-11T00:41:26.108Z,16.04
2023-08-11T00:41:38.683Z,16.06
2023-08-11T00:41:50.622Z,16.05
2023-08-11T00:42:02.465Z,16.04
2023-08-11T00:42:14.519Z,16.05
2023-08-11T00:42:26.569Z,16.05
2023-08-11T00:42:38.390Z,16.03
2023-08-11T00:42:50.228Z,16.04
2023-08-11T00:43:02.110Z,16.03
2023-08-11T00:43:14.300Z,16.03
2023-08-11T00:43:26.195Z,16.02
2023-08-11T00:43:38.313Z,16.02
2023-08-11T00:43:50.225Z,16.01
2023-08-11T00:44:02.081Z,16.01
2023-08-11T00:44:14.957Z,15.99
2023-08-11T00:44:27.098Z,15.99
2023-08-11T00:44:38.934Z,15.97
2023-08-11T00:44:51.217Z,15.99
2023-08-11T00:45:05.453Z,15.99
2023-08-11T00:45:17.985Z,15.98
2023-08-11T00:45:30.440Z,15.98
2023-08-11T00:45:46.537Z,15.97
2023-08-11T00:45:59.121Z,15.96
2023-08-11T00:46:12.867Z,15.97
2023-08-11T00:46:25.190Z,15.96
2023-08-11T00:46:37.938Z,15.94
2023-08-11T00:46:50.730Z,15.95
2023-08-11T00:47:03.475Z,15.94
2023-08-11T00:47:15.675Z,15.93
2023-08-11T00:47:27.874Z,15.94
2023-08-11T00:47:41.695Z,15.93
2023-08-11T00:47:53.765Z,15.93
2023-08-11T00:48:06.397Z,15.92
2023-08-11T00:48:18.372Z,15.91
2023-08-11T00:48:30.767Z,15.94
2023-08-11T00:48:43.285Z,15.91
2023-08-11T00:48:55.781Z,15.90
2023-08-11T00:49:07.631Z,15.89
2023-08-11T00:49:19.643Z,15.88
2023-08-11T00:49:31.504Z,15.87
2023-08-11T00:49:43.652Z,15.87
2023-08-11T00:49:55.575Z,15.87
2023-08-11T00:50:08.197Z,15.86
2023-08-11T00:50:20.485Z,15.85
2023-08-11T00:50:32.481Z,15.85
2023-08-11T00:50:44.593Z,15.85
2023-08-11T00:50:56.578Z,15.86
2023-08-11T00:51:09.030Z,15.85
2023-08-11T00:51:24.017Z,15.84
2023-08-11T00:51:35.860Z,15.83
2023-08-11T00:51:47.877Z,15.83
2023-08-11T00:51:59.945Z,15.83
2023-08-11T00:52:12.626Z,15.82
2023-08-11T00:52:24.565Z,15.82
2023-08-11T00:52:36.567Z,15.82
2023-08-11T00:52:48.444Z,15.82
2023-08-11T00:53:00.380Z,15.82
2023-08-11T00:53:12.273Z,15.82
2023-08-11T00:53:24.395Z,15.79
2023-08-11T00:53:37.595Z,15.79
2023-08-11T00:53:49.883Z,15.79
2023-08-11T00:54:01.914Z,15.79
2023-08-11T00:54:15.547Z,15.79
2023-08-11T00:54:28.085Z,15.78
2023-08-11T00:54:40.453Z,15.76
2023-08-11T00:54:54.190Z,15.78
2023-08-11T00:55:06.917Z,15.77
2023-08-11T00:55:18.977Z,15.76
2023-08-11T00:55:30.866Z,15.76
2023-08-11T00:55:42.665Z,15.77
2023-08-11T00:55:54.408Z,15.75
2023-08-11T00:56:06.380Z,15.75
2023-08-11T00:56:19.825Z,15.74
2023-08-11T00:56:31.718Z,15.76
2023-08-11T00:56:44.869Z,15.74
2023-08-11T00:56:57.820Z,15.74
2023-08-11T00:57:10.912Z,15.74
2023-08-11T00:57:22.893Z,15.72
2023-08-11T00:57:34.955Z,15.72
2023-08-11T00:57:48.002Z,15.71
2023-08-11T00:58:00.280Z,15.71
2023-08-11T00:58:12.269Z,15.71
2023-08-11T00:58:24.175Z,15.70
2023-08-11T00:58:36.436Z,15.69
2023-08-11T00:58:49.772Z,15.69
2023-08-11T00:59:01.621Z,15.67
2023-08-11T00:59:13.580Z,15.67
2023-08-11T00:59:26.772Z,15.67
2023-08-11T00:59:38.720Z,15.69
2023-08-11T00:59:51.690Z,15.67
2023-08-11T01:00:09.834Z,15.67
2023-08-11T01:00:21.661Z,15.66
2023-08-11T01:00:33.566Z,15.66
2023-08-11T01:00:45.541Z,15.65
2023-08-11T01:00:57.801Z,15.65
2023-08-11T01:01:09.819Z,15.65
2023-08-11T01:01:21.630Z,15.65
2023-08-11T01:01:33.602Z,15.64
2023-08-11T01:01:45.432Z,15.63
2023-08-11T01:01:57.355Z,15.64
2023-08-11T01:02:09.649Z,15.64
2023-08-11T01:02:21.516Z,15.63
2023-08-11T01:02:33.369Z,15.65
2023-08-11T01:02:45.886Z,15.63
2023-08-11T01:02:58.032Z,15.64
2023-08-11T01:03:09.950Z,15.64
2023-08-11T01:03:22.277Z,15.63
2023-08-11T01:03:34.240Z,15.63
2023-08-11T01:03:46.121Z,15.63
2023-08-11T01:03:57.934Z,15.63
2023-08-11T01:04:09.779Z,15.62
2023-08-11T01:04:21.894Z,15.64
2023-08-11T01:04:33.810Z,15.63
2023-08-11T01:04:45.680Z,15.62
2023-08-11T01:04:57.537Z,15.63
2023-08-11T01:05:10.016Z,15.63
2023-08-11T01:05:22.609Z,15.63
2023-08-11T01:05:39.968Z,15.62
2023-08-11T01:06:01.781Z,15.63
2023-08-11T01:06:20.932Z,15.62
2023-08-11T01:06:39.079Z,15.62
2023-08-11T01:07:03.222Z,15.62
2023-08-11T01:07:23.601Z,15.61
2023-08-11T01:07:40.651Z,15.61
2023-08-11T01:08:02.281Z,15.62
2023-08-11T01:08:22.355Z,15.63
2023-08-11T01:08:44.681Z,15.63
2023-08-11T01:09:02.785Z,15.64
2023-08-11T01:09:25.051Z,15.64
2023-08-11T01:09:47.436Z,15.64
2023-08-11T01:10:06.912Z,15.65
2023-08-11T01:10:28.810Z,15.67
2023-08-11T01:10:47.684Z,15.69
2023-08-11T01:11:07.770Z,15.68
2023-08-11T01:11:28.811Z,15.69
2023-08-11T01:11:45.895Z,15.67
2023-08-11T01:12:10.418Z,15.69
2023-08-11T01:12:30.486Z,15.67
2023-08-11T01:12:51.884Z,15.68
2023-08-11T01:13:12.150Z,15.69
2023-08-11T01:13:30.689Z,15.70
2023-08-11T01:13:48.872Z,15.69
2023-08-11T01:14:06.417Z,15.69
2023-08-11T01:14:21.581Z,15.68
2023-08-11T01:14:39.721Z,15.68
2023-08-11T01:15:00.289Z,15.68
2023-08-11T01:15:19.337Z,15.67
2023-08-11T01:15:35.361Z,15.68
2023-08-11T01:15:57.340Z,15.67
2023-08-11T01:16:09.559Z,15.66
2023-08-11T01:16:24.330Z,15.67
2023-08-11T01:16:37.610Z,15.67
2023-08-11T01:16:52.768Z,15.67
2023-08-11T01:17:07.769Z,15.66
2023-08-11T01:17:20.520Z,15.65
2023-08-11T01:17:33.959Z,15.65
2023-08-11T01:17:48.440Z,15.64
2023-08-11T01:18:01.197Z,15.65
2023-08-11T01:18:13.650Z,15.64
2023-08-11T01:18:26.624Z,15.63
2023-08-11T01:18:40.355Z,15.63
2023-08-11T01:18:52.462Z,15.63
2023-08-11T01:19:07.153Z,15.60
2023-08-11T01:19:27.777Z,15.61
2023-08-11T01:19:39.959Z,15.62
2023-08-11T01:19:51.791Z,15.61
2023-08-11T01:20:04.338Z,15.61
2023-08-11T01:20:17.129Z,15.59
2023-08-11T01:20:29.301Z,15.60
2023-08-11T01:20:44.181Z,15.59
2023-08-11T01:21:00.537Z,15.61
2023-08-11T01:21:15.354Z,15.59
2023-08-11T01:21:28.161Z,15.59
2023-08-11T01:21:42.076Z,15.58
2023-08-11T01:21:56.216Z,15.58
2023-08-11T01:22:14.782Z,15.58
2023-08-11T01:22:29.561Z,15.57
2023-08-11T01:22:45.629Z,15.58
2023-08-11T01:23:01.000Z,15.59
2023-08-11T01:23:18.906Z,15.57
2023-08-11T01:23:30.818Z,15.56
2023-08-11T01:23:44.539Z,15.56
2023-08-11T01:23:56.580Z,15.55
2023-08-11T01:24:08.944Z,15.55
2023-08-11T01:24:21.096Z,15.55
2023-08-11T01:24:33.367Z,15.54
2023-08-11T01:24:45.927Z,15.54
2023-08-11T01:24:58.070Z,15.54
2023-08-11T01:25:11.028Z,15.53
2023-08-11T01:25:24.644Z,15.53
2023-08-11T01:25:37.481Z,15.53
2023-08-11T01:25:50.924Z,15.51
2023-08-11T01:26:02.994Z,15.52
2023-08-11T01:26:15.027Z,15.51
2023-08-11T01:26:26.999Z,15.51
2023-08-11T01:26:38.984Z,15.50
2023-08-11T01:26:50.885Z,15.50
2023-08-11T01:27:03.481Z,15.48
2023-08-11T01:27:15.366Z,15.49
2023-08-11T01:27:28.779Z,15.48
2023-08-11T01:27:44.811Z,15.48
2023-08-11T01:27:58.112Z,15.48
2023-08-11T01:28:10.052Z,15.47
2023-08-11T01:28:21.942Z,15.47
2023-08-11T01:28:34.673Z,15.46
2023-08-11T01:28:46.730Z,15.45
2023-08-11T01:28:58.541Z,15.45
2023-08-11T01:29:10.342Z,15.45
2023-08-11T01:29:22.120Z,15.45
2023-08-11T01:29:33.970Z,15.45
2023-08-11T01:29:45.828Z,15.44
2023-08-11T01:29:57.582Z,15.44
2023-08-11T01:30:10.248Z,15.43
2023-08-11T01:30:24.857Z,15.43
2023-08-11T01:30:36.919Z,15.42
2023-08-11T01:30:48.846Z,15.42
2023-08-11T01:31:01.602Z,15.41
2023-08-11T01:31:13.741Z,15.41
2023-08-11T01:31:25.656Z,15.42
2023-08-11T01:31:37.466Z,15.39
2023-08-11T01:31:49.328Z,15.41
2023-08-11T01:32:01.395Z,15.40
2023-08-11T01:32:14.864Z,15.39
2023-08-11T01:32:27.010Z,15.38
2023-08-11T01:32:38.908Z,15.39
2023-08-11T01:32:50.792Z,15.37
2023-08-11T01:33:02.651Z,15.39
2023-08-11T01:33:14.691Z,15.39
2023-08-11T01:33:26.879Z,15.37
2023-08-11T01:33:38.714Z,15.36
2023-08-11T01:33:50.555Z,15.38
2023-08-11T01:34:02.406Z,15.35
2023-08-11T01:34:14.253Z,15.38
2023-08-11T01:34:26.152Z,15.36
2023-08-11T01:34:38.005Z,15.38
2023-08-11T01:34:49.898Z,15.38
2023-08-11T01:35:01.711Z,15.36
2023-08-11T01:35:17.362Z,15.36
2023-08-11T01:35:41.280Z,15.36
2023-08-11T01:35:54.163Z,15.35
2023-08-11T01:36:06.377Z,15.33
2023-08-11T01:36:18.170Z,15.32
2023-08-11T01:36:29.972Z,15.34
2023-08-11T01:36:42.160Z,15.33
2023-08-11T01:36:57.397Z,15.33
2023-08-11T01:37:09.572Z,15.32
2023-08-11T01:37:21.620Z,15.31
2023-08-11T01:37:33.621Z,15.34
2023-08-11T01:37:46.943Z,15.31
2023-08-11T01:37:59.788Z,15.31
2023-08-11T01:38:11.836Z,15.31
2023-08-11T01:38:25.224Z,15.31
2023-08-11T01:38:37.299Z,15.30
2023-08-11T01:38:49.141Z,15.29
2023-08-11T01:39:00.934Z,15.29
2023-08-11T01:39:12.889Z,15.30
2023-08-11T01:39:24.739Z,15.29
2023-08-11T01:39:36.713Z,15.30
2023-08-11T01:39:48.536Z,15.27
2023-08-11T01:40:00.403Z,15.29
2023-08-11T01:40:12.489Z,15.29
2023-08-11T01:40:24.358Z,15.30
2023-08-11T01:40:36.124Z,15.29
2023-08-11T01:40:49.731Z,15.29
2023-08-11T01:41:01.578Z,15.27
2023-08-11T01:41:14.498Z,15.29
2023-08-11T01:41:26.649Z,15.29
2023-08-11T01:41:39.337Z,15.27
2023-08-11T01:41:51.211Z,15.28
2023-08-11T01:42:03.274Z,15.29
2023-08-11T01:42:15.640Z,15.28
2023-08-11T01:42:27.651Z,15.28
2023-08-11T01:42:46.829Z,15.29
2023-08-11T01:43:10.245Z,15.28
2023-08-11T01:43:23.940Z,15.29
2023-08-11T01:43:37.650Z,15.29
2023-08-11T01:43:51.865Z,15.30
2023-08-11T01:44:05.066Z,15.30
2023-08-11T01:44:17.410Z,15.30
2023-08-11T01:44:30.164Z,15.29
2023-08-11T01:44:42.468Z,15.29
2023-08-11T01:44:54.582Z,15.28
2023-08-11T01:45:08.127Z,15.30
2023-08-11T01:45:20.443Z,15.30
2023-08-11T01:45:32.472Z,15.30
2023-08-11T01:45:44.564Z,15.31
2023-08-11T01:45:57.059Z,15.30
2023-08-11T01:46:11.443Z,15.31
2023-08-11T01:46:26.847Z,15.31
2023-08-11T01:46:38.959Z,15.31
2023-08-11T01:46:52.785Z,15.30
2023-08-11T01:47:06.821Z,15.31
2023-08-11T01:47:20.136Z,15.31
2023-08-11T01:47:32.666Z,15.31
2023-08-11T01:47:46.938Z,15.31
2023-08-11T01:48:00.509Z,15.31
2023-08-11T01:48:15.542Z,15.32
2023-08-11T01:48:28.352Z,15.32
2023-08-11T01:48:42.487Z,15.31
2023-08-11T01:48:57.365Z,15.31
2023-08-11T01:49:10.449Z,15.31
2023-08-11T01:49:23.434Z,15.34
2023-08-11T01:49:35.632Z,15.33
2023-08-11T01:49:48.374Z,15.32
2023-08-11T01:50:02.448Z,15.32
2023-08-11T01:50:15.107Z,15.32
2023-08-11T01:50:26.994Z,15.34
2023-08-11T01:50:39.457Z,15.33
2023-08-11T01:50:51.462Z,15.33
2023-08-11T01:51:03.448Z,15.33
2023-08-11T01:51:15.356Z,15.33
2023-08-11T01:51:28.138Z,15.34
2023-08-11T01:51:40.345Z,15.33
2023-08-11T01:51:52.444Z,15.33
2023-08-11T01:52:06.070Z,15.33
2023-08-11T01:52:18.208Z,15.33
2023-08-11T01:52:31.560Z,15.33
2023-08-11T01:52:46.705Z,15.33
2023-08-11T01:52:59.286Z,15.33
2023-08-11T01:53:11.468Z,15.32
2023-08-11T01:53:25.176Z,15.32
2023-08-11T01:53:37.145Z,15.32
2023-08-11T01:53:49.342Z,15.31
2023-08-11T01:54:01.095Z,15.33
2023-08-11T01:54:13.039Z,15.32
2023-08-11T01:54:25.585Z,15.33
2023-08-11T01:54:37.864Z,15.32
2023-08-11T01:54:49.990Z,15.32
2023-08-11T01:55:01.988Z,15.33
2023-08-11T01:55:14.912Z,15.33
2023-08-11T01:55:27.374Z,15.31
2023-08-11T01:55:39.681Z,15.32
2023-08-11T01:55:52.414Z,15.32
2023-08-11T01:56:04.861Z,15.31
2023-08-11T01:56:17.955Z,15.32
2023-08-11T01:56:30.448Z,15.31
2023-08-11T01:56:43.813Z,15.31
2023-08-11T01:56:56.576Z,15.32
2023-08-11T01:57:09.670Z,15.31
2023-08-11T01:57:22.008Z,15.30
2023-08-11T01:57:37.007Z,15.31
2023-08-11T01:57:58.567Z,15.30
2023-08-11T01:58:12.076Z,15.29
2023-08-11T01:58:23.959Z,15.30
2023-08-11T01:58:37.017Z,15.29
2023-08-11T01:58:48.924Z,15.29
2023-08-11T01:59:03.183Z,15.28
2023-08-11T01:59:16.160Z,15.27
2023-08-11T01:59:29.866Z,15.27
2023-08-11T01:59:41.950Z,15.28
2023-08-11T01:59:53.844Z,15.27
2023-08-11T02:00:07.079Z,15.27
2023-08-11T02:00:25.878Z,15.26
2023-08-11T02:00:37.714Z,15.26
2023-08-11T02:00:49.530Z,15.26
2023-08-11T02:01:01.286Z,15.26
2023-08-11T02:01:13.133Z,15.26
2023-08-11T02:01:25.571Z,15.25
2023-08-11T02:01:37.432Z,15.27
2023-08-11T02:01:49.207Z,15.26
2023-08-11T02:02:01.110Z,15.25
2023-08-11T02:02:13.026Z,15.25
2023-08-11T02:02:25.117Z,15.25
2023-08-11T02:02:37.194Z,15.24
2023-08-11T02:02:50.018Z,15.25
2023-08-11T02:03:02.023Z,15.25
2023-08-11T02:03:14.098Z,15.24
2023-08-11T02:03:26.067Z,15.23
2023-08-11T02:03:38.044Z,15.25
2023-08-11T02:03:50.011Z,15.24
2023-08-11T02:04:01.927Z,15.24
2023-08-11T02:04:38.101Z,15.26
2023-08-11T02:04:49.990Z,15.26
2023-08-11T02:05:04.011Z,15.25
2023-08-11T02:05:16.003Z,15.24
2023-08-11T02:05:28.446Z,15.25
2023-08-11T02:05:40.270Z,15.25
2023-08-11T02:05:52.700Z,15.25
2023-08-11T02:06:04.896Z,15.24
2023-08-11T02:06:17.756Z,15.25
2023-08-11T02:06:29.470Z,15.24
2023-08-11T02:06:41.341Z,15.23
2023-08-11T02:06:53.085Z,15.23
2023-08-11T02:07:05.735Z,15.22
2023-08-11T02:07:17.844Z,15.21
2023-08-11T02:07:29.622Z,15.22
2023-08-11T02:07:42.701Z,15.22
2023-08-11T02:07:54.897Z,15.22
2023-08-11T02:08:07.181Z,15.22
2023-08-11T02:08:18.899Z,15.20
2023-08-11T02:08:31.974Z,15.21
2023-08-11T02:08:43.637Z,15.20
2023-08-11T02:08:55.399Z,15.20
2023-08-11T02:09:07.302Z,15.20
2023-08-11T02:09:19.025Z,15.20
2023-08-11T02:09:30.756Z,15.19
2023-08-11T02:09:42.541Z,15.19
2023-08-11T02:09:54.307Z,15.19
2023-08-11T02:10:07.243Z,15.20
2023-08-11T02:10:19.003Z,15.18
2023-08-11T02:10:30.873Z,15.19
2023-08-11T02:10:42.688Z,15.19
2023-08-11T02:10:54.455Z,15.16
2023-08-11T02:11:06.156Z,15.15
2023-08-11T02:11:17.889Z,15.17
2023-08-11T02:11:29.876Z,15.17
2023-08-11T02:11:41.679Z,15.18
2023-08-11T02:11:53.448Z,15.18
2023-08-11T02:12:06.087Z,15.18
2023-08-11T02:12:18.002Z,15.18
2023-08-11T02:12:29.711Z,15.17
2023-08-11T02:12:41.858Z,15.17
2023-08-11T02:12:54.063Z,15.16
2023-08-11T02:13:05.820Z,15.16
2023-08-11T02:13:17.509Z,15.17
2023-08-11T02:13:29.529Z,15.16
2023-08-11T02:13:46.648Z,15.17
2023-08-11T02:13:58.326Z,15.16
2023-08-11T02:14:10.059Z,15.17
2023-08-11T02:14:21.919Z,15.17
2023-08-11T02:14:33.624Z,15.15
2023-08-11T02:14:45.287Z,15.16
2023-08-11T02:14:57.100Z,15.15
2023-08-11T02:15:09.864Z,15.15
2023-08-11T02:15:21.902Z,15.15
2023-08-11T02:15:33.612Z,15.15
2023-08-11T02:15:45.297Z,15.13
2023-08-11T02:15:57.072Z,15.15
2023-08-11T02:16:09.634Z,15.15
2023-08-11T02:16:21.401Z,15.16
2023-08-11T02:16:33.845Z,15.14
2023-08-11T02:16:45.605Z,15.12
2023-08-11T02:16:57.319Z,15.16
2023-08-11T02:17:09.280Z,15.15
2023-08-11T02:17:21.391Z,15.16
2023-08-11T02:17:33.674Z,15.16
2023-08-11T02:17:45.580Z,15.17
2023-08-11T02:17:57.362Z,15.16
2023-08-11T02:18:09.214Z,15.17
2023-08-11T02:18:21.037Z,15.16
2023-08-11T02:18:32.795Z,15.16
2023-08-11T02:18:44.497Z,15.17
2023-08-11T02:18:56.314Z,15.16
2023-08-11T02:19:08.069Z,15.16
2023-08-11T02:19:19.781Z,15.17
2023-08-11T02:19:31.556Z,15.16
2023-08-11T02:19:43.324Z,15.17
2023-08-11T02:19:55.041Z,15.17
2023-08-11T02:20:08.001Z,15.18
2023-08-11T02:20:19.721Z,15.18
2023-08-11T02:20:31.387Z,15.18
2023-08-11T02:20:43.189Z,15.18
2023-08-11T02:20:54.893Z,15.18
2023-08-11T02:21:06.628Z,15.16
2023-08-11T02:21:18.346Z,15.16
2023-08-11T02:21:30.123Z,15.16
2023-08-11T02:21:41.839Z,15.16
2023-08-11T02:21:54.180Z,15.17
2023-08-11T02:22:06.079Z,15.16
2023-08-11T02:22:17.872Z,15.14
2023-08-11T02:22:29.613Z,15.15
2023-08-11T02:22:41.377Z,15.15
2023-08-11T02:22:53.682Z,15.15
2023-08-11T02:23:05.587Z,15.16
2023-08-11T02:23:17.251Z,15.15
2023-08-11T02:23:28.992Z,15.15
2023-08-11T02:23:42.945Z,15.15
2023-08-11T02:23:54.645Z,15.15
2023-08-11T02:24:07.242Z,15.13
2023-08-11T02:24:18.992Z,15.14
2023-08-11T02:24:30.723Z,15.13
2023-08-11T02:24:42.469Z,15.15
2023-08-11T02:24:54.446Z,15.14
2023-08-11T02:25:07.016Z,15.14
2023-08-11T02:25:18.791Z,15.14
2023-08-11T02:25:30.502Z,15.12
2023-08-11T02:25:42.239Z,15.14
2023-08-11T02:25:53.980Z,15.14
2023-08-11T02:26:05.739Z,15.14
2023-08-11T02:26:17.531Z,15.12
2023-08-11T02:26:29.285Z,15.14
2023-08-11T02:26:41.058Z,15.14
2023-08-11T02:26:52.788Z,15.13
2023-08-11T02:27:05.854Z,15.13
2023-08-11T02:27:17.900Z,15.13
2023-08-11T02:27:29.617Z,15.11
2023-08-11T02:27:41.920Z,15.12
2023-08-11T02:27:53.695Z,15.11
2023-08-11T02:28:05.691Z,15.13
2023-08-11T02:28:18.411Z,15.12
2023-08-11T02:28:30.484Z,15.13
2023-08-11T02:28:42.280Z,15.12
2023-08-11T02:28:53.984Z,15.13
2023-08-11T02:29:05.737Z,15.13
2023-08-11T02:29:17.479Z,15.14
2023-08-11T02:29:29.276Z,15.13
2023-08-11T02:29:41.003Z,15.13
2023-08-11T02:29:52.767Z,15.13
2023-08-11T02:30:05.814Z,15.13
2023-08-11T02:30:17.685Z,15.12
2023-08-11T02:30:29.496Z,15.12
2023-08-11T02:30:41.292Z,15.09
2023-08-11T02:30:52.985Z,15.11
2023-08-11T02:31:04.774Z,15.10
2023-08-11T02:31:16.584Z,15.14
2023-08-11T02:31:28.408Z,15.12
2023-08-11T02:31:40.189Z,15.12
2023-08-11T02:31:52.046Z,15.11
2023-08-11T02:32:04.121Z,15.11
2023-08-11T02:32:15.897Z,15.12
2023-08-11T02:32:27.597Z,15.12
2023-08-11T02:32:39.478Z,15.12
2023-08-11T02:32:51.335Z,15.13
2023-08-11T02:33:03.124Z,15.13
2023-08-11T02:33:14.886Z,15.12
2023-08-11T02:33:28.299Z,15.13
2023-08-11T02:33:40.141Z,15.12
2023-08-11T02:33:51.898Z,15.12
2023-08-11T02:34:03.958Z,15.12
2023-08-11T02:34:16.117Z,15.11
2023-08-11T02:34:27.821Z,15.10
2023-08-11T02:34:39.581Z,15.10
2023-08-11T02:34:51.308Z,15.11
2023-08-11T02:35:05.807Z,15.09
2023-08-11T02:35:17.779Z,15.11
2023-08-11T02:35:29.608Z,15.10
2023-08-11T02:35:41.399Z,15.09
2023-08-11T02:35:53.985Z,15.09
2023-08-11T02:36:06.035Z,15.09
2023-08-11T02:36:17.741Z,15.08
2023-08-11T02:36:30.918Z,15.06
2023-08-11T02:36:42.632Z,15.09
2023-08-11T02:36:54.411Z,15.08
2023-08-11T02:37:06.464Z,15.08
2023-08-11T02:37:18.389Z,15.09
2023-08-11T02:37:30.086Z,15.07
2023-08-11T02:37:42.023Z,15.08
2023-08-11T02:37:53.734Z,15.06
2023-08-11T02:38:05.436Z,15.06
2023-08-11T02:38:19.396Z,15.07
2023-08-11T02:38:31.160Z,15.06
2023-08-11T02:38:44.243Z,15.05
2023-08-11T02:38:56.090Z,15.05
2023-08-11T02:39:07.871Z,15.04
2023-08-11T02:39:19.603Z,15.05
2023-08-11T02:39:31.316Z,15.03
2023-08-11T02:39:43.888Z,15.03
2023-08-11T02:39:55.611Z,15.03
2023-08-11T02:40:08.495Z,15.01
2023-08-11T02:40:20.272Z,14.97
2023-08-11T02:40:32.035Z,15.03
2023-08-11T02:40:43.746Z,15.01
2023-08-11T02:40:55.451Z,15.02
2023-08-11T02:41:07.278Z,15.03
2023-08-11T02:41:19.941Z,15.02
2023-08-11T02:41:32.635Z,15.02
2023-08-11T02:41:44.370Z,15.00
2023-08-11T02:41:56.312Z,15.01
2023-08-11T02:42:08.262Z,15.01
2023-08-11T02:42:20.216Z,15.01
2023-08-11T02:42:33.698Z,15.00
2023-08-11T02:42:46.995Z,15.01
2023-08-11T02:42:59.480Z,15.01
2023-08-11T02:43:11.320Z,15.00
2023-08-11T02:43:23.118Z,15.00
2023-08-11T02:43:34.855Z,14.99
2023-08-11T02:43:46.653Z,14.99
2023-08-11T02:43:58.413Z,14.99
2023-08-11T02:44:10.126Z,14.99